createdAt,value
2023-05-18T00:00:46.680Z,89.99
2023-05-18T00:03:14.483Z,89.89
2023-05-18T00:05:42.806Z,90.20
2023-05-18T00:08:10.482Z,90.96
2023-05-18T00:10:39.458Z,90.84
2023-05-18T00:13:08.645Z,90.68
2023-05-18T00:15:36.209Z,91.23
2023-05-18T00:18:03.888Z,91.19
2023-05-18T00:20:31.541Z,91.41
2023-05-18T00:23:00.543Z,91.73
2023-05-18T00:25:28.496Z,91.83
2023-05-18T00:27:57.693Z,90.94
2023-05-18T00:30:25.674Z,91.62
2023-05-18T00:32:53.335Z,92.61
2023-05-18T00:35:21.384Z,92.50
2023-05-18T00:37:49.262Z,92.49
2023-05-18T00:40:17.460Z,92.05
2023-05-18T00:42:45.161Z,92.36
2023-05-18T00:45:14.124Z,92.80
2023-05-18T00:47:41.808Z,92.48
2023-05-18T00:50:10.909Z,92.59
2023-05-18T00:52:38.793Z,92.73
2023-05-18T00:55:08.008Z,92.41
2023-05-18T00:57:36.699Z,92.98
2023-05-18T01:00:07.250Z,93.64
2023-05-18T01:02:37.075Z,93.66
2023-05-18T01:05:04.922Z,93.72
2023-05-18T01:07:33.418Z,93.46
2023-05-18T01:10:01.261Z,93.23
2023-05-18T01:12:33.860Z,93.83
2023-05-18T01:15:08.647Z,94.12
2023-05-18T01:17:52.373Z,94.31
2023-05-18T01:20:34.013Z,93.51
2023-05-18T01:23:20.596Z,93.41
2023-05-18T01:25:55.813Z,94.23
2023-05-18T01:28:31.403Z,94.22
2023-05-18T01:31:00.161Z,94.06
2023-05-18T01:33:27.885Z,94.79
2023-05-18T01:35:55.570Z,94.16
2023-05-18T01:38:25.106Z,94.39
2023-05-18T01:41:01.098Z,94.83
2023-05-18T01:47:32.317Z,93.76
2023-05-18T01:50:04.864Z,94.14
2023-05-18T01:52:37.186Z,94.38
2023-05-18T01:55:06.272Z,94.55
2023-05-18T01:57:37.356Z,94.35
2023-05-18T02:00:07.940Z,94.22
2023-05-18T02:02:46.182Z,94.23
2023-05-18T02:05:16.728Z,93.95
2023-05-18T02:07:47.276Z,93.06
2023-05-18T02:10:15.501Z,93.28
2023-05-18T02:12:43.256Z,93.79
2023-05-18T02:15:11.487Z,93.35
2023-05-18T02:17:39.174Z,93.46
2023-05-18T02:20:10.117Z,93.69
2023-05-18T02:22:37.922Z,94.32
2023-05-18T02:25:07.200Z,94.13
2023-05-18T02:27:36.628Z,94.71
2023-05-18T02:30:05.156Z,95.00
2023-05-18T02:32:38.199Z,95.38
2023-05-18T02:35:09.610Z,94.99
2023-05-18T02:37:40.061Z,94.87
2023-05-18T02:40:12.038Z,95.56
2023-05-18T02:42:41.414Z,95.58
2023-05-18T02:45:10.039Z,94.99
2023-05-18T02:47:37.758Z,94.80
2023-05-18T02:50:09.105Z,95.04
2023-05-18T02:52:36.980Z,94.98
2023-05-18T02:55:05.836Z,95.63
2023-05-18T02:57:56.853Z,95.09
2023-05-18T03:00:32.823Z,95.81
2023-05-18T03:03:01.900Z,95.45
2023-05-18T03:05:31.168Z,95.27
2023-05-18T03:07:58.906Z,95.42
2023-05-18T03:10:26.565Z,95.30
2023-05-18T03:12:54.233Z,95.74
2023-05-18T03:15:21.988Z,95.88
2023-05-18T03:17:51.719Z,96.33
2023-05-18T03:20:19.861Z,95.92
2023-05-18T03:22:48.876Z,96.22
2023-05-18T03:25:16.537Z,95.70
2023-05-18T03:27:44.240Z,95.51
2023-05-18T03:30:14.035Z,95.90
2023-05-18T03:32:41.873Z,95.54
2023-05-18T03:35:10.743Z,95.15
2023-05-18T03:37:38.487Z,95.64
2023-05-18T03:40:12.873Z,95.60
2023-05-18T03:42:42.061Z,95.39
2023-05-18T03:45:10.991Z,95.80
2023-05-18T03:47:39.719Z,94.75
2023-05-18T03:50:08.797Z,95.25
2023-05-18T03:52:37.039Z,95.76
2023-05-18T03:55:07.720Z,96.36
2023-05-18T03:57:36.741Z,95.24
2023-05-18T04:00:08.747Z,96.16
2023-05-18T04:02:44.949Z,95.32
2023-05-18T04:05:15.281Z,94.52
2023-05-18T04:07:46.467Z,95.58
2023-05-18T04:10:17.089Z,95.46
2023-05-18T04:12:46.046Z,94.67
2023-05-18T04:15:14.544Z,95.82
2023-05-18T04:17:45.330Z,95.47
2023-05-18T04:20:14.400Z,95.69
2023-05-18T04:22:46.565Z,95.81
2023-05-18T04:25:14.770Z,95.50
2023-05-18T04:27:45.366Z,95.71
2023-05-18T04:30:18.673Z,94.71
2023-05-18T04:32:46.401Z,95.14
2023-05-18T04:35:14.131Z,94.55
2023-05-18T04:37:42.775Z,95.50
2023-05-18T04:40:17.147Z,94.81
2023-05-18T04:42:47.691Z,94.85
2023-05-18T04:45:21.904Z,95.28
2023-05-18T04:47:53.554Z,95.30
2023-05-18T04:50:24.454Z,94.94
2023-05-18T04:52:52.813Z,94.93
2023-05-18T04:55:26.300Z,95.73
2023-05-18T04:57:57.916Z,95.93
2023-05-18T05:00:29.272Z,95.62
2023-05-18T05:02:57.727Z,95.66
2023-05-18T05:05:26.794Z,95.45
2023-05-18T05:07:55.616Z,95.11
2023-05-18T05:10:23.767Z,96.85
2023-05-18T05:12:52.345Z,96.75
2023-05-18T05:15:21.049Z,95.47
2023-05-18T05:17:52.277Z,95.05
2023-05-18T05:20:20.213Z,95.39
2023-05-18T05:22:48.103Z,95.87
2023-05-18T05:25:18.836Z,96.20
2023-05-18T05:27:46.724Z,95.91
2023-05-18T05:30:14.812Z,95.44
2023-05-18T05:32:44.247Z,95.13
2023-05-18T05:35:13.452Z,95.86
2023-05-18T05:37:42.266Z,95.91
2023-05-18T05:40:11.378Z,95.98
2023-05-18T05:42:44.151Z,96.12
2023-05-18T05:45:11.965Z,96.04
2023-05-18T05:47:50.616Z,96.25
2023-05-18T05:50:21.519Z,95.63
2023-05-18T05:52:51.008Z,95.69
2023-05-18T05:55:19.961Z,95.07
2023-05-18T05:57:47.635Z,95.20
2023-05-18T06:00:15.861Z,93.42
2023-05-18T06:02:49.395Z,92.41
2023-05-18T06:05:25.269Z,88.47
2023-05-18T06:07:55.351Z,86.70
2023-05-18T06:10:23.390Z,84.53
2023-05-18T06:12:51.064Z,83.99
2023-05-18T06:15:20.152Z,81.34
2023-05-18T06:17:47.829Z,80.47
2023-05-18T06:20:16.594Z,77.93
2023-05-18T06:22:45.866Z,78.46
2023-05-18T06:25:36.464Z,77.07
2023-05-18T06:28:26.994Z,76.21
2023-05-18T06:31:00.329Z,74.28
2023-05-18T06:33:36.843Z,76.59
2023-05-18T06:36:04.971Z,73.64
2023-05-18T06:38:34.135Z,73.28
2023-05-18T06:41:02.453Z,73.48
2023-05-18T06:43:30.150Z,71.28
2023-05-18T06:46:04.707Z,70.43
2023-05-18T06:48:38.593Z,70.03
2023-05-18T06:51:06.243Z,70.89
2023-05-18T06:53:35.559Z,69.26
2023-05-18T06:56:04.755Z,69.18
2023-05-18T06:58:32.667Z,67.90
2023-05-18T07:01:04.265Z,68.12
2023-05-18T07:03:32.522Z,66.66
2023-05-18T07:06:00.280Z,66.69
2023-05-18T07:08:28.131Z,66.61
2023-05-18T07:10:58.020Z,66.00
2023-05-18T07:13:25.896Z,66.25
2023-05-18T07:15:53.628Z,66.35
2023-05-18T07:18:21.284Z,65.17
2023-05-18T07:20:48.907Z,65.31
2023-05-18T07:23:16.526Z,64.67
2023-05-18T07:25:44.146Z,64.68
2023-05-18T07:28:13.211Z,65.11
2023-05-18T07:30:40.782Z,64.11
2023-05-18T07:33:08.462Z,65.03
2023-05-18T07:35:36.165Z,64.69
2023-05-18T07:38:03.819Z,64.37
2023-05-18T07:40:31.521Z,66.01
2023-05-18T07:42:59.125Z,64.05
2023-05-18T07:45:28.214Z,64.72
2023-05-18T07:47:55.951Z,63.86
2023-05-18T07:50:23.998Z,63.23
2023-05-18T07:52:51.577Z,60.73
2023-05-18T07:55:19.681Z,61.77
2023-05-18T07:57:47.346Z,61.73
2023-05-18T08:00:17.190Z,61.41
2023-05-18T08:02:47.940Z,61.88
2023-05-18T08:05:15.752Z,61.54
2023-05-18T08:07:43.446Z,60.67
2023-05-18T08:10:12.024Z,62.09
2023-05-18T08:12:39.661Z,61.02
2023-05-18T08:15:09.071Z,61.12
2023-05-18T08:17:36.726Z,59.50
2023-05-18T08:20:08.226Z,60.52
2023-05-18T08:22:36.256Z,61.28
2023-05-18T08:25:04.114Z,62.33
2023-05-18T08:27:31.832Z,61.83
2023-05-18T08:29:59.427Z,60.76
2023-05-18T08:32:27.715Z,62.40
2023-05-18T08:34:55.454Z,61.29
2023-05-18T08:37:29.056Z,60.29
2023-05-18T08:39:56.944Z,60.42
2023-05-18T08:42:38.041Z,60.91
2023-05-18T08:45:22.105Z,60.63
2023-05-18T08:47:51.292Z,60.18
2023-05-18T08:50:24.110Z,60.10
2023-05-18T08:52:56.873Z,60.59
2023-05-18T08:55:24.995Z,57.99
2023-05-18T08:57:56.781Z,59.43
2023-05-18T09:00:25.016Z,59.38
2023-05-18T09:02:52.959Z,58.80
2023-05-18T09:05:21.840Z,58.24
2023-05-18T09:07:51.062Z,58.50
2023-05-18T09:10:20.102Z,56.96
2023-05-18T09:12:49.794Z,57.61
2023-05-18T09:15:18.380Z,57.04
2023-05-18T09:17:46.077Z,55.66
2023-05-18T09:20:13.921Z,57.35
2023-05-18T09:22:42.912Z,56.15
2023-05-18T09:25:14.002Z,56.91
2023-05-18T09:27:43.692Z,55.58
2023-05-18T09:30:12.363Z,54.29
2023-05-18T09:32:40.318Z,53.40
2023-05-18T09:35:09.352Z,52.44
2023-05-18T09:37:37.444Z,52.87
2023-05-18T09:40:07.900Z,53.36
2023-05-18T09:42:39.202Z,52.47
2023-05-18T09:45:18.780Z,52.75
2023-05-18T09:47:46.565Z,50.39
2023-05-18T09:50:14.439Z,51.82
2023-05-18T09:52:43.284Z,51.21
2023-05-18T09:55:12.149Z,49.00
2023-05-18T09:57:41.550Z,49.76
2023-05-18T10:00:12.620Z,47.68
2023-05-18T10:02:41.692Z,47.39
2023-05-18T10:05:20.319Z,47.03
2023-05-18T10:07:48.631Z,49.21
2023-05-18T10:10:19.504Z,47.97
2023-05-18T10:12:47.403Z,47.37
2023-05-18T10:15:17.999Z,45.66
2023-05-18T10:17:47.020Z,44.19
2023-05-18T10:20:18.417Z,44.08
2023-05-18T10:22:47.729Z,45.75
2023-05-18T10:25:19.411Z,43.55
2023-05-18T10:27:51.170Z,45.33
2023-05-18T10:30:22.798Z,43.59
2023-05-18T10:32:52.307Z,44.96
2023-05-18T10:35:21.711Z,43.20
2023-05-18T10:37:51.160Z,42.19
2023-05-18T10:40:20.365Z,42.99
2023-05-18T10:42:49.877Z,42.09
2023-05-18T10:45:17.596Z,40.81
2023-05-18T10:47:53.523Z,42.19
2023-05-18T10:50:21.750Z,43.04
2023-05-18T10:52:50.187Z,41.66
2023-05-18T10:55:18.690Z,40.95
2023-05-18T10:57:50.888Z,39.79
2023-05-18T11:00:20.201Z,41.25
2023-05-18T11:02:51.801Z,40.53
2023-05-18T11:05:25.520Z,40.93
2023-05-18T11:08:00.830Z,41.16
2023-05-18T11:10:35.134Z,41.11
2023-05-18T11:13:03.163Z,40.22
2023-05-18T11:16:00.686Z,41.24
2023-05-18T11:18:36.321Z,40.21
2023-05-18T11:21:04.025Z,40.73
2023-05-18T11:23:33.006Z,40.83
2023-05-18T11:26:04.580Z,41.12
2023-05-18T11:28:33.534Z,39.59
2023-05-18T11:31:01.495Z,40.11
2023-05-18T11:33:31.113Z,39.24
2023-05-18T11:36:02.479Z,38.98
2023-05-18T11:38:54.084Z,38.75
2023-05-18T11:41:33.354Z,37.75
2023-05-18T11:44:15.951Z,38.80
2023-05-18T11:46:53.691Z,39.67
2023-05-18T11:49:24.895Z,39.75
2023-05-18T11:52:08.935Z,37.15
2023-05-18T11:54:41.976Z,36.90
2023-05-18T11:57:11.106Z,36.77
2023-05-18T11:59:41.516Z,36.10
2023-05-18T12:02:11.603Z,35.38
2023-05-18T12:04:51.078Z,36.54
2023-05-18T12:07:20.745Z,35.73
2023-05-18T12:09:49.736Z,36.56
2023-05-18T12:12:20.501Z,34.81
2023-05-18T12:14:55.373Z,32.54
2023-05-18T12:17:24.207Z,34.50
2023-05-18T12:19:53.283Z,35.02
2023-05-18T12:22:21.329Z,34.36
2023-05-18T12:24:52.586Z,32.70
2023-05-18T12:27:22.852Z,32.10
2023-05-18T12:29:50.933Z,31.86
2023-05-18T12:32:18.739Z,32.74
2023-05-18T12:34:46.455Z,32.68
2023-05-18T12:37:15.738Z,31.22
2023-05-18T12:39:43.352Z,29.94
2023-05-18T12:42:15.990Z,28.69
2023-05-18T12:44:46.535Z,27.75
2023-05-18T12:47:14.598Z,29.03
2023-05-18T12:49:43.598Z,29.14
2023-05-18T12:52:12.974Z,30.31
2023-05-18T12:54:55.029Z,28.81
2023-05-18T12:57:26.419Z,28.89
2023-05-18T12:59:55.268Z,26.89
2023-05-18T13:02:31.005Z,27.81
2023-05-18T13:05:07.280Z,25.99
2023-05-18T13:07:37.307Z,26.08
2023-05-18T13:10:11.904Z,26.26
2023-05-18T13:12:41.176Z,23.98
2023-05-18T13:15:16.582Z,25.30
2023-05-18T13:17:58.768Z,25.27
2023-05-18T13:20:32.897Z,22.74
2023-05-18T13:23:04.307Z,23.55
2023-05-18T13:25:33.926Z,23.83
2023-05-18T13:28:02.219Z,24.01
2023-05-18T13:30:30.013Z,22.95
2023-05-18T13:32:58.574Z,21.89
2023-05-18T13:35:27.013Z,21.85
2023-05-18T13:37:54.743Z,22.79
2023-05-18T13:40:25.260Z,22.44
2023-05-18T13:42:54.329Z,22.59
2023-05-18T13:45:22.417Z,22.27
2023-05-18T13:47:51.579Z,23.51
2023-05-18T13:50:19.422Z,23.20
2023-05-18T13:52:47.600Z,21.19
2023-05-18T13:55:15.357Z,21.79
2023-05-18T13:57:43.180Z,20.70
2023-05-18T14:00:13.976Z,20.01
2023-05-18T14:02:42.166Z,21.42
2023-05-18T14:05:10.449Z,20.43
2023-05-18T14:07:38.551Z,20.75
2023-05-18T14:10:07.681Z,20.79
2023-05-18T14:12:35.663Z,19.86
2023-05-18T14:15:03.883Z,19.19
2023-05-18T14:17:33.455Z,18.79
2023-05-18T14:20:01.409Z,18.81
2023-05-18T14:22:30.480Z,18.76
2023-05-18T14:24:58.441Z,17.76
2023-05-18T14:27:26.042Z,19.88
2023-05-18T14:29:53.672Z,19.48
2023-05-18T14:32:21.642Z,18.36
2023-05-18T14:34:54.117Z,17.35
2023-05-18T14:37:21.903Z,18.97
2023-05-18T14:39:49.672Z,16.98
2023-05-18T14:42:17.424Z,17.94
2023-05-18T14:44:45.087Z,17.84
2023-05-18T14:47:12.793Z,19.32
2023-05-18T14:49:40.590Z,19.87
2023-05-18T14:52:10.260Z,20.32
2023-05-18T14:54:37.853Z,18.34
2023-05-18T14:57:05.763Z,16.54
2023-05-18T14:59:33.387Z,15.80
2023-05-18T15:02:01.130Z,16.31
2023-05-18T15:04:28.700Z,16.36
2023-05-18T15:06:56.452Z,15.45
2023-05-18T15:09:26.814Z,16.55
2023-05-18T15:11:54.761Z,17.93
2023-05-18T15:14:22.350Z,17.06
2023-05-18T15:16:49.980Z,16.03
2023-05-18T15:19:17.571Z,15.78
2023-05-18T15:21:45.266Z,14.08
2023-05-18T15:24:12.972Z,12.98
2023-05-18T15:26:41.977Z,12.01
2023-05-18T15:29:09.590Z,10.89
2023-05-18T15:31:39.730Z,11.00
2023-05-18T15:34:07.684Z,12.03
2023-05-18T15:36:36.510Z,13.17
2023-05-18T15:39:04.888Z,12.87
2023-05-18T15:41:34.447Z,12.62
2023-05-18T15:44:03.909Z,12.98
2023-05-18T15:46:34.642Z,13.87
2023-05-18T15:49:02.880Z,13.19
2023-05-18T15:51:30.897Z,12.06
2023-05-18T15:53:58.568Z,11.03
2023-05-18T15:56:26.484Z,11.00
2023-05-18T15:58:54.072Z,11.21
2023-05-18T16:01:23.056Z,11.63
2023-05-18T16:03:50.946Z,10.44
2023-05-18T16:06:18.861Z,11.46
2023-05-18T16:08:46.720Z,11.93
2023-05-18T16:11:14.356Z,11.51
2023-05-18T16:13:41.954Z,11.91
2023-05-18T16:16:10.420Z,11.28
2023-05-18T16:18:39.449Z,10.30
2023-05-18T16:21:07.154Z,10.48
2023-05-18T16:23:34.889Z,10.74
2023-05-18T16:26:05.232Z,10.75
2023-05-18T16:28:33.139Z,11.27
2023-05-18T16:31:00.796Z,11.02
2023-05-18T16:33:28.371Z,11.14
2023-05-18T16:35:58.217Z,10.90
2023-05-18T16:38:26.057Z,11.70
2023-05-18T16:40:53.665Z,12.18
2023-05-18T16:43:21.332Z,12.39
2023-05-18T16:45:49.025Z,12.09
2023-05-18T16:48:16.634Z,12.70
2023-05-18T16:50:44.236Z,12.36
2023-05-18T16:53:13.239Z,12.71
2023-05-18T16:55:41.056Z,12.01
2023-05-18T16:58:08.848Z,12.94
2023-05-18T17:00:36.494Z,12.34
2023-05-18T17:03:05.341Z,12.55
2023-05-18T17:05:34.518Z,12.35
2023-05-18T17:08:02.203Z,12.65
2023-05-18T17:10:34.465Z,13.70
2023-05-18T17:13:02.150Z,14.66
2023-05-18T17:15:30.556Z,15.46
2023-05-18T17:17:58.644Z,16.05
2023-05-18T17:20:26.458Z,15.79
2023-05-18T17:22:54.118Z,15.72
2023-05-18T17:25:21.692Z,15.55
2023-05-18T17:27:50.864Z,15.61
2023-05-18T17:30:18.512Z,14.89
2023-05-18T17:32:50.302Z,15.77
2023-05-18T17:35:18.109Z,16.63
2023-05-18T17:37:46.400Z,16.54
2023-05-18T17:40:14.453Z,15.78
2023-05-18T17:42:42.101Z,15.38
2023-05-18T17:45:11.902Z,16.43
2023-05-18T17:47:41.472Z,16.97
2023-05-18T17:50:09.808Z,17.85
2023-05-18T17:52:37.466Z,17.68
2023-05-18T17:55:06.532Z,17.61
2023-05-18T17:57:35.029Z,17.67
2023-05-18T18:00:03.898Z,18.66
2023-05-18T18:02:41.520Z,18.81
2023-05-18T18:05:10.962Z,19.77
2023-05-18T18:07:40.758Z,20.50
2023-05-18T18:10:10.076Z,20.52
2023-05-18T18:12:37.867Z,21.36
2023-05-18T18:15:06.094Z,21.84
2023-05-18T18:17:34.322Z,22.92
2023-05-18T18:20:05.569Z,24.07
2023-05-18T18:22:35.606Z,26.21
2023-05-18T18:25:03.455Z,27.19
2023-05-18T18:27:31.046Z,28.30
2023-05-18T18:29:58.613Z,29.43
2023-05-18T18:32:26.696Z,30.44
2023-05-18T18:34:54.727Z,30.91
2023-05-18T18:37:23.911Z,32.43
2023-05-18T18:39:51.884Z,31.79
2023-05-18T18:42:21.493Z,33.07
2023-05-18T18:44:52.792Z,33.15
2023-05-18T18:47:20.679Z,34.93
2023-05-18T18:49:48.254Z,36.06
2023-05-18T18:52:16.008Z,35.47
2023-05-18T18:54:45.200Z,36.94
2023-05-18T18:57:13.077Z,39.01
2023-05-18T18:59:40.694Z,39.29
2023-05-18T19:02:08.777Z,40.14
2023-05-18T19:04:36.520Z,40.65
2023-05-18T19:07:04.730Z,41.53
2023-05-18T19:09:36.070Z,42.70
2023-05-18T19:12:05.676Z,43.34
2023-05-18T19:14:33.289Z,44.39
2023-05-18T19:17:00.964Z,44.46
2023-05-18T19:19:29.440Z,45.77
2023-05-18T19:21:57.108Z,46.01
2023-05-18T19:24:24.696Z,46.18
2023-05-18T19:26:52.383Z,47.21
2023-05-18T19:29:21.585Z,48.04
2023-05-18T19:31:49.237Z,48.10
2023-05-18T19:34:16.901Z,49.28
2023-05-18T19:36:44.631Z,50.22
2023-05-18T19:39:12.583Z,50.82
2023-05-18T19:41:40.218Z,51.72
2023-05-18T19:44:07.869Z,52.05
2023-05-18T19:46:37.304Z,52.79
2023-05-18T19:49:06.565Z,53.22
2023-05-18T19:51:34.570Z,54.12
2023-05-18T19:54:02.205Z,53.87
2023-05-18T19:56:30.055Z,55.24
2023-05-18T19:58:58.370Z,55.11
2023-05-18T20:01:26.080Z,55.09
2023-05-18T20:03:56.725Z,56.22
2023-05-18T20:06:24.372Z,56.50
2023-05-18T20:08:51.965Z,56.99
2023-05-18T20:11:19.564Z,57.38
2023-05-18T20:13:47.135Z,57.00
2023-05-18T20:16:15.659Z,57.61
2023-05-18T20:18:43.341Z,58.01
2023-05-18T20:21:12.402Z,58.19
2023-05-18T20:23:39.984Z,59.02
2023-05-18T20:26:07.750Z,59.33
2023-05-18T20:28:36.533Z,60.56
2023-05-18T20:31:04.132Z,59.99
2023-05-18T20:33:34.232Z,60.67
2023-05-18T20:36:01.926Z,61.01
2023-05-18T20:38:30.861Z,61.58
2023-05-18T20:40:59.514Z,62.61
2023-05-18T20:43:27.117Z,63.34
2023-05-18T20:45:55.842Z,63.42
2023-05-18T20:48:26.630Z,63.91
2023-05-18T20:50:54.536Z,63.88
2023-05-18T20:53:22.183Z,63.46
2023-05-18T20:55:54.031Z,64.91
2023-05-18T20:58:22.188Z,64.72
2023-05-18T21:00:50.846Z,65.71
2023-05-18T21:03:19.967Z,65.98
2023-05-18T21:05:49.540Z,66.53
2023-05-18T21:08:17.324Z,66.03
2023-05-18T21:10:44.976Z,66.85
2023-05-18T21:13:14.945Z,67.04
2023-05-18T21:15:42.659Z,67.51
2023-05-18T21:18:10.461Z,66.85
2023-05-18T21:20:38.176Z,66.58
2023-05-18T21:23:05.837Z,66.72
2023-05-18T21:25:33.418Z,67.10
2023-05-18T21:28:01.097Z,67.15
2023-05-18T21:30:31.651Z,67.82
2023-05-18T21:32:59.551Z,67.88
2023-05-18T21:35:28.275Z,68.20
2023-05-18T21:37:55.864Z,69.09
2023-05-18T21:40:23.536Z,68.67
2023-05-18T21:42:51.131Z,68.77
2023-05-18T21:45:20.655Z,69.68
2023-05-18T21:47:50.761Z,69.05
2023-05-18T21:50:19.036Z,69.44
2023-05-18T21:52:46.830Z,70.01
2023-05-18T21:55:14.511Z,70.09
2023-05-18T21:57:42.152Z,70.65
2023-05-18T22:00:12.185Z,69.95
2023-05-18T22:02:42.542Z,71.34
2023-05-18T22:05:11.782Z,70.28
2023-05-18T22:07:39.506Z,70.76
2023-05-18T22:10:07.909Z,71.30
2023-05-18T22:12:37.418Z,71.10
2023-05-18T22:15:05.855Z,70.64
2023-05-18T22:17:34.168Z,71.42
2023-05-18T22:20:01.855Z,71.40
2023-05-18T22:22:31.063Z,70.87
2023-05-18T22:24:58.778Z,71.16
2023-05-18T22:27:26.583Z,72.11
2023-05-18T22:29:54.211Z,71.32
2023-05-18T22:32:22.057Z,72.36
2023-05-18T22:34:49.900Z,72.22
2023-05-18T22:37:17.504Z,71.73
2023-05-18T22:39:46.496Z,71.06
2023-05-18T22:42:14.064Z,72.08
2023-05-18T22:44:41.672Z,71.49
2023-05-18T22:47:09.845Z,72.91
2023-05-18T22:49:37.568Z,73.75
2023-05-18T22:52:06.504Z,73.25
2023-05-18T22:54:34.081Z,73.12
2023-05-18T22:57:03.023Z,73.84
2023-05-18T22:59:30.656Z,71.94
2023-05-18T23:01:58.346Z,72.50
2023-05-18T23:04:25.976Z,72.89
2023-05-18T23:06:54.572Z,73.43
2023-05-18T23:09:22.224Z,74.50
2023-05-18T23:11:52.249Z,74.98
2023-05-18T23:14:21.999Z,74.32
2023-05-18T23:16:50.060Z,74.67
2023-05-18T23:19:19.833Z,75.44
2023-05-18T23:21:47.786Z,75.80
2023-05-18T23:24:15.891Z,75.49
2023-05-18T23:26:44.317Z,76.36
2023-05-18T23:29:12.299Z,76.13
2023-05-18T23:31:41.299Z,76.39
2023-05-18T23:34:09.370Z,76.59
2023-05-18T23:36:39.608Z,77.20
2023-05-18T23:39:07.846Z,76.69
2023-05-18T23:41:37.057Z,77.10
2023-05-18T23:44:06.465Z,77.40
2023-05-18T23:46:35.533Z,77.97
2023-05-18T23:49:05.227Z,78.57
2023-05-18T23:51:36.217Z,78.85
2023-05-18T23:54:07.077Z,79.03
2023-05-18T23:56:35.362Z,78.59
2023-05-18T23:59:03.629Z,79.41
